Time;durP1;ratioP1;P1;durP2;ratioP2;P2;SDS_P1;SDS_P2;PMS_P1;PMS_P2;Temp;Humidity;BMP_temperature;BMP_pressure;BME280_temperature;BME280_humidity;BME280_pressure;Samples;Min_cycle;Max_cycle;Signal;HPM_P1;HPM_P2
2022/10/27 00:01:19;;;;;;;7.40;2.47;;;12.80;99.90;;;;;;6203621;28;20523;-83
2022/10/27 00:04:21;;;;;;;12.52;3.92;;;12.70;99.90;;;;;;6203207;28;20042;-84
2022/10/27 00:07:23;;;;;;;6.95;2.35;;;12.70;99.90;;;;;;6203127;28;20059;-85
2022/10/27 00:10:24;;;;;;;15.63;3.67;;;12.70;99.90;;;;;;6202932;28;20046;-85
2022/10/27 00:13:28;;;;;;;16.80;2.95;;;12.70;99.90;;;;;;6202570;28;20050;-85
2022/10/27 00:16:30;;;;;;;11.20;3.47;;;12.70;99.90;;;;;;6202238;28;20049;-85
2022/10/27 00:19:31;;;;;;;17.40;3.75;;;12.70;99.90;;;;;;6202152;28;20050;-85
2022/10/27 00:22:33;;;;;;;13.60;2.88;;;12.70;99.90;;;;;;6202968;28;20101;-83
2022/10/27 00:25:35;;;;;;;9.73;2.60;;;12.70;99.90;;;;;;6201646;28;20042;-84
2022/10/27 00:28:38;;;;;;;10.20;2.35;;;12.70;99.90;;;;;;6198085;28;20047;-84
2022/10/27 00:31:40;;;;;;;9.98;4.35;;;12.60;99.90;;;;;;6178015;28;20051;-84
2022/10/27 00:34:42;;;;;;;9.93;2.70;;;12.60;99.90;;;;;;6178034;28;20054;-84
2022/10/27 00:37:43;;;;;;;9.13;2.42;;;12.60;99.90;;;;;;6176797;28;20504;-85
2022/10/27 00:40:45;;;;;;;14.05;2.00;;;12.50;99.90;;;;;;6177045;28;20054;-84
2022/10/27 00:43:48;;;;;;;10.40;2.55;;;12.50;99.90;;;;;;6177045;28;20047;-83
2022/10/27 00:46:50;;;;;;;13.25;2.42;;;12.50;99.90;;;;;;6177898;28;20063;-84
2022/10/27 00:49:58;;;;;;;15.15;2.90;;;12.40;99.90;;;;;;6176671;28;20047;-82
2022/10/27 00:53:00;;;;;;;;;;;12.40;99.90;;;;;;6177380;28;20053;-82
2022/10/27 00:56:03;;;;;;;8.52;2.35;;;12.40;99.90;;;;;;6176669;28;19926;-84
2022/10/27 00:59:06;;;;;;;6.53;2.53;;;12.40;99.90;;;;;;6177032;28;20136;-85
2022/10/27 01:02:10;;;;;;;7.90;2.88;;;12.40;99.90;;;;;;6216429;28;20053;-86
2022/10/27 01:05:16;;;;;;;13.90;3.10;;;12.30;99.90;;;;;;6224860;28;20115;-86
2022/10/27 01:08:19;;;;;;;8.35;2.10;;;12.30;99.90;;;;;;6224587;28;20057;-85
2022/10/27 01:11:20;;;;;;;12.27;3.92;;;12.20;99.90;;;;;;6224965;28;20061;-84
2022/10/27 01:14:24;;;;;;;10.73;2.88;;;12.20;99.90;;;;;;6224804;28;20050;-85
2022/10/27 01:17:37;;;;;;;7.18;2.53;;;12.20;99.90;;;;;;6224611;28;20049;-86
2022/10/27 01:21:03;;;;;;;9.77;3.60;;;12.10;99.90;;;;;;6224490;28;20042;-85
2022/10/27 01:24:44;;;;;;;7.13;3.13;;;12.00;99.90;;;;;;6224290;28;20041;-86
2022/10/27 01:28:15;;;;;;;18.65;2.83;;;12.00;99.90;;;;;;6224608;28;20060;-85
2022/10/27 01:31:23;;;;;;;9.32;2.75;;;12.00;99.90;;;;;;6192355;28;20468;-85
2022/10/27 01:34:29;;;;;;;;;;;12.00;99.90;;;;;;6215467;28;20037;-85
2022/10/27 01:37:37;;;;;;;11.57;2.75;;;12.10;99.90;;;;;;6228666;28;19980;-85
2022/10/27 01:40:46;;;;;;;8.32;2.92;;;11.90;99.90;;;;;;6211688;28;20046;-88
2022/10/27 01:43:52;;;;;;;11.25;3.22;;;12.00;99.90;;;;;;6207122;28;20053;-85
2022/10/27 01:46:57;;;;;;;11.05;2.97;;;12.10;99.90;;;;;;6209935;28;20492;-86
2022/10/27 01:49:58;;;;;;;16.05;4.00;;;12.10;99.90;;;;;;6209169;28;20144;-87
2022/10/27 01:53:00;;;;;;;4.97;2.67;;;12.00;99.90;;;;;;6210089;28;20061;-87
2022/10/27 01:56:23;;;;;;;7.38;2.85;;;11.90;99.90;;;;;;6206998;28;20127;-84
2022/10/27 01:59:44;;;;;;;6.28;2.90;;;11.90;99.90;;;;;;6212913;28;20042;-86
2022/10/27 02:02:52;;;;;;;10.18;2.40;;;11.90;99.90;;;;;;6215306;28;20046;-84
2022/10/27 02:06:04;;;;;;;8.68;2.75;;;11.80;99.90;;;;;;6216209;28;20113;-84
2022/10/27 02:09:10;;;;;;;14.15;3.80;;;11.80;99.90;;;;;;6216712;28;20046;-84
2022/10/27 02:12:18;;;;;;;10.32;2.85;;;11.80;99.90;;;;;;6215674;28;20606;-83
2022/10/27 02:15:25;;;;;;;8.57;3.67;;;11.70;99.90;;;;;;6216661;28;20057;-84
2022/10/27 02:18:32;;;;;;;12.48;4.18;;;11.70;99.90;;;;;;6217159;28;20137;-86
2022/10/27 02:21:37;;;;;;;14.23;3.35;;;12.00;99.90;;;;;;6215146;28;20058;-86
2022/10/27 02:24:39;;;;;;;17.90;3.67;;;11.60;99.90;;;;;;6216682;28;20057;-84
2022/10/27 02:27:45;;;;;;;12.18;3.83;;;12.10;99.90;;;;;;6216078;28;20122;-84
2022/10/27 02:30:48;;;;;;;11.25;3.88;;;11.60;99.90;;;;;;6207426;28;20047;-82
2022/10/27 02:33:53;;;;;;;6.82;3.33;;;11.70;99.90;;;;;;6213391;28;20043;-83
2022/10/27 02:36:54;;;;;;;6.80;3.15;;;12.10;99.90;;;;;;6214012;28;20102;-83
2022/10/27 02:39:56;;;;;;;9.50;3.50;;;11.60;99.90;;;;;;6214246;28;20053;-84
2022/10/27 02:42:58;;;;;;;16.35;3.83;;;11.60;99.90;;;;;;6213083;28;20050;-82
2022/10/27 02:45:59;;;;;;;16.48;3.50;;;11.60;99.90;;;;;;6214033;28;20046;-84
2022/10/27 02:49:03;;;;;;;18.95;5.57;;;11.60;99.90;;;;;;6211886;28;20050;-85
2022/10/27 02:52:05;;;;;;;11.63;3.97;;;11.60;99.90;;;;;;6213187;28;20046;-84
2022/10/27 02:55:08;;;;;;;10.00;3.85;;;11.50;99.90;;;;;;6217237;28;20109;-84
2022/10/27 02:58:10;;;;;;;7.80;2.78;;;11.50;99.90;;;;;;6216393;28;20053;-83
2022/10/27 03:01:11;;;;;;;7.00;3.83;;;11.50;99.90;;;;;;6215852;28;20118;-86
2022/10/27 03:04:14;;;;;;;15.27;3.50;;;11.40;99.90;;;;;;6209230;28;20050;-85
2022/10/27 03:07:16;;;;;;;13.02;3.15;;;11.40;99.90;;;;;;6208198;28;20054;-85
2022/10/27 03:10:18;;;;;;;12.30;2.88;;;11.40;99.90;;;;;;6208675;28;20038;-84
2022/10/27 03:13:20;;;;;;;12.35;4.75;;;11.30;99.90;;;;;;6209446;28;20057;-85
2022/10/27 03:16:22;;;;;;;15.70;4.40;;;11.30;99.90;;;;;;6210761;28;20052;-86
2022/10/27 03:19:25;;;;;;;13.82;4.20;;;11.30;99.90;;;;;;6211983;28;20081;-86
2022/10/27 03:22:27;;;;;;;19.40;4.85;;;11.70;99.90;;;;;;6211919;28;20046;-86
2022/10/27 03:25:28;;;;;;;19.52;4.90;;;11.50;99.90;;;;;;6212716;28;20105;-85
2022/10/27 03:28:34;;;;;;;5.35;3.03;;;11.20;99.90;;;;;;6212430;28;20042;-86
2022/10/27 03:31:35;;;;;;;7.55;3.05;;;11.60;99.90;;;;;;6205140;28;20047;-86
2022/10/27 03:34:38;;;;;;;7.93;2.75;;;11.60;99.90;;;;;;6218014;28;20114;-84
2022/10/27 03:37:40;;;;;;;8.68;3.22;;;11.20;99.90;;;;;;6210348;28;20057;-87
2022/10/27 03:40:42;;;;;;;7.07;3.88;;;11.70;99.90;;;;;;6215036;28;20419;-84
2022/10/27 03:43:44;;;;;;;13.45;3.83;;;11.00;99.90;;;;;;6214593;28;20065;-84
2022/10/27 03:46:45;;;;;;;11.00;3.58;;;11.00;99.90;;;;;;6216392;28;20060;-85
2022/10/27 03:49:48;;;;;;;8.60;3.47;;;11.00;99.90;;;;;;6215088;28;20042;-83
2022/10/27 03:52:50;;;;;;;17.52;3.33;;;11.00;99.90;;;;;;6219533;28;20122;-85
2022/10/27 03:55:52;;;;;;;7.45;3.47;;;11.00;99.90;;;;;;6219664;28;20133;-83
2022/10/27 03:58:54;;;;;;;10.70;3.10;;;11.40;99.90;;;;;;6219732;28;20060;-84
2022/10/27 04:01:55;;;;;;;14.55;3.80;;;10.90;99.90;;;;;;6238061;28;20048;-84
2022/10/27 04:04:59;;;;;;;14.48;4.05;;;10.90;99.90;;;;;;6242144;28;20052;-83
2022/10/27 04:08:00;;;;;;;8.63;2.97;;;10.90;99.90;;;;;;6242239;28;20120;-85
2022/10/27 04:11:02;;;;;;;10.77;2.90;;;11.00;99.90;;;;;;6242064;28;20056;-84
2022/10/27 04:14:04;;;;;;;15.18;2.70;;;10.90;99.90;;;;;;6240623;28;20050;-84
2022/10/27 04:17:06;;;;;;;8.85;2.90;;;10.90;99.90;;;;;;6240266;28;20045;-82
2022/10/27 04:20:09;;;;;;;9.50;2.65;;;11.10;99.90;;;;;;6239627;28;20125;-82
2022/10/27 04:23:11;;;;;;;11.43;3.10;;;10.90;99.90;;;;;;6241386;28;20148;-84
2022/10/27 04:26:13;;;;;;;8.32;2.75;;;10.90;99.90;;;;;;6244365;28;20054;-84
2022/10/27 04:29:15;;;;;;;7.10;2.83;;;11.10;99.90;;;;;;6242597;28;20137;-86
2022/10/27 04:32:16;;;;;;;6.60;2.35;;;11.10;99.90;;;;;;6232621;28;20130;-86
2022/10/27 04:35:19;;;;;;;8.07;2.85;;;10.80;99.90;;;;;;6213677;28;20109;-84
2022/10/27 04:38:21;;;;;;;7.05;2.42;;;10.80;99.90;;;;;;6216929;28;20500;-85
2022/10/27 04:41:23;;;;;;;9.73;2.60;;;11.30;99.90;;;;;;6214916;28;20112;-84
2022/10/27 04:44:24;;;;;;;6.65;2.90;;;10.70;99.90;;;;;;6215390;28;20046;-84
2022/10/27 04:47:26;;;;;;;6.20;2.72;;;10.70;99.90;;;;;;6214200;28;20179;-84
2022/10/27 04:50:29;;;;;;;8.15;3.05;;;10.70;99.90;;;;;;6213378;28;20050;-85
2022/10/27 04:53:31;;;;;;;8.45;3.28;;;11.20;99.90;;;;;;6213737;28;20089;-86
2022/10/27 04:56:33;;;;;;;10.82;3.55;;;10.70;99.90;;;;;;6213792;28;20064;-84
2022/10/27 04:59:35;;;;;;;9.07;3.83;;;11.20;99.90;;;;;;6213683;28;20065;-84
2022/10/27 05:02:54;;;;;;;10.50;4.38;;;10.70;99.90;;;;;;6214748;28;20054;-85
2022/10/27 05:05:59;;;;;;;16.55;3.85;;;11.20;99.90;;;;;;6212080;28;20046;-86
2022/10/27 05:09:00;;;;;;;7.95;3.50;;;11.30;99.90;;;;;;6212788;28;20050;-84
2022/10/27 05:12:02;;;;;;;8.55;2.92;;;10.80;99.90;;;;;;6212641;28;20089;-84
2022/10/27 05:15:05;;;;;;;13.95;3.88;;;11.00;99.90;;;;;;6212820;28;20109;-84
2022/10/27 05:18:06;;;;;;;15.20;4.20;;;11.00;99.90;;;;;;6212759;28;20050;-83
2022/10/27 05:21:10;;;;;;;15.52;4.90;;;11.10;99.90;;;;;;6217513;28;20042;-83
2022/10/27 05:24:13;;;;;;;12.63;3.58;;;11.10;99.90;;;;;;6218204;28;20050;-87
2022/10/27 05:27:15;;;;;;;12.48;3.58;;;11.10;99.90;;;;;;6205996;28;20117;-89
2022/10/27 05:30:17;;;;;;;5.57;2.75;;;11.50;99.90;;;;;;6206246;28;20575;-88
2022/10/27 05:33:19;;;;;;;6.50;2.72;;;11.10;99.90;;;;;;6205131;28;20053;-88
2022/10/27 05:36:22;;;;;;;30.80;4.82;;;11.10;99.90;;;;;;6188045;28;20039;-88
2022/10/27 05:39:25;;;;;;;10.43;3.40;;;11.10;99.90;;;;;;6192555;28;20047;-88
2022/10/27 05:42:27;;;;;;;9.30;3.10;;;11.10;99.90;;;;;;6192782;28;20097;-88
2022/10/27 05:45:29;;;;;;;18.33;3.70;;;11.10;99.90;;;;;;6192054;28;20050;-88
2022/10/27 05:48:31;;;;;;;39.00;6.28;;;11.10;99.90;;;;;;6191825;28;20049;-88
2022/10/27 05:51:34;;;;;;;18.80;4.57;;;11.10;99.90;;;;;;6192213;28;20098;-89
2022/10/27 05:54:36;;;;;;;15.77;3.67;;;11.00;99.90;;;;;;6189840;28;20114;-88
2022/10/27 05:57:37;;;;;;;9.68;3.58;;;11.00;99.90;;;;;;6185334;28;20056;-87
2022/10/27 06:00:40;;;;;;;22.42;4.25;;;11.40;99.90;;;;;;6187669;28;20577;-89
2022/10/27 06:03:41;;;;;;;15.50;3.13;;;11.20;99.90;;;;;;6188531;28;20113;-88
2022/10/27 06:06:45;;;;;;;16.55;3.67;;;10.70;99.90;;;;;;6189053;28;20135;-88
2022/10/27 06:09:46;;;;;;;6.18;2.95;;;11.60;99.90;;;;;;6188642;28;20066;-87
2022/10/27 06:12:48;;;;;;;8.35;2.70;;;10.70;99.90;;;;;;6188362;28;20127;-87
2022/10/27 06:15:50;;;;;;;14.50;3.70;;;10.70;99.90;;;;;;6190057;28;20065;-88
2022/10/27 06:18:53;;;;;;;7.13;3.13;;;11.00;99.90;;;;;;6189292;28;20171;-88
2022/10/27 06:21:57;;;;;;;4.20;2.28;;;10.70;99.90;;;;;;6187744;28;20591;-88
2022/10/27 06:24:58;;;;;;;6.68;3.10;;;10.90;99.90;;;;;;6187624;28;20106;-87
2022/10/27 06:28:00;;;;;;;5.72;2.38;;;10.80;99.90;;;;;;6190661;28;20163;-90
2022/10/27 06:31:02;;;;;;;4.40;2.63;;;10.90;99.90;;;;;;6193393;28;20114;-88
2022/10/27 06:34:04;;;;;;;4.25;2.58;;;11.00;99.90;;;;;;6187751;28;20126;-88
2022/10/27 06:37:07;;;;;;;7.20;2.83;;;11.10;99.90;;;;;;6184295;28;20076;-88
2022/10/27 06:40:11;;;;;;;6.82;3.28;;;11.20;99.90;;;;;;6185334;28;20394;-89
2022/10/27 06:43:13;;;;;;;5.00;2.38;;;11.30;99.90;;;;;;6187543;28;20047;-88
2022/10/27 06:46:15;;;;;;;12.20;2.90;;;11.60;99.90;;;;;;6189782;28;20137;-88
2022/10/27 06:49:17;;;;;;;10.70;3.13;;;11.50;99.90;;;;;;6188946;28;20047;-89
2022/10/27 06:52:20;;;;;;;21.48;4.13;;;11.70;99.90;;;;;;6189020;28;20110;-87
2022/10/27 06:55:22;;;;;;;14.35;5.05;;;12.60;99.90;;;;;;6189727;28;20492;-88
2022/10/27 06:58:24;;;;;;;19.20;4.82;;;12.40;99.90;;;;;;6188757;28;20493;-87
2022/10/27 07:01:26;;;;;;;22.00;5.53;;;12.20;99.90;;;;;;6189257;28;20102;-88
2022/10/27 07:04:28;;;;;;;31.85;5.90;;;12.60;99.90;;;;;;6189493;28;20043;-88
2022/10/27 07:07:31;;;;;;;31.92;6.00;;;12.40;99.90;;;;;;6189843;28;20138;-88
2022/10/27 07:10:33;;;;;;;21.58;5.65;;;12.60;99.90;;;;;;6195022;28;20046;-87
2022/10/27 07:13:35;;;;;;;29.77;3.90;;;12.80;99.90;;;;;;6188817;28;20601;-87
2022/10/27 07:16:36;;;;;;;16.23;4.00;;;12.80;99.90;;;;;;6186263;28;20053;-88
2022/10/27 07:19:38;;;;;;;31.73;3.35;;;12.80;99.90;;;;;;6184887;28;20050;-86
2022/10/27 07:22:41;;;;;;;9.95;2.42;;;13.00;99.90;;;;;;6147950;28;20058;-88
2022/10/27 07:25:48;;;;;;;27.20;4.47;;;12.70;99.90;;;;;;6202433;28;20054;-87
2022/10/27 07:28:58;;;;;;;8.82;3.17;;;12.70;99.90;;;;;;6220155;28;20046;-85
2022/10/27 07:32:00;;;;;;;10.55;3.00;;;13.10;99.90;;;;;;6231988;28;20049;-84
2022/10/27 07:35:02;;;;;;;7.03;2.72;;;13.30;99.90;;;;;;6235850;28;20244;-85
2022/10/27 07:38:06;;;;;;;13.55;4.18;;;13.30;99.90;;;;;;6231065;28;20053;-86
2022/10/27 07:41:08;;;;;;;9.95;3.08;;;13.60;99.90;;;;;;6231559;28;20412;-87
2022/10/27 07:44:10;;;;;;;7.25;2.67;;;14.30;99.90;;;;;;6233326;22;20057;-82
2022/10/27 07:47:12;;;;;;;17.05;3.85;;;14.20;99.90;;;;;;6185819;28;20042;-83
2022/10/27 07:50:14;;;;;;;47.15;7.00;;;14.30;99.90;;;;;;6185649;28;20419;-82
2022/10/27 07:53:17;;;;;;;17.27;3.85;;;14.50;99.90;;;;;;6184394;28;20053;-83
2022/10/27 07:56:19;;;;;;;20.25;4.38;;;14.70;99.90;;;;;;6185379;28;20050;-83
2022/10/27 07:59:21;;;;;;;51.33;7.97;;;14.80;99.90;;;;;;6185045;28;20058;-83
2022/10/27 08:02:22;;;;;;;20.30;4.07;;;15.00;99.90;;;;;;6199738;28;20046;-83
2022/10/27 08:05:24;;;;;;;29.30;6.03;;;15.10;99.90;;;;;;6213610;28;20050;-83
2022/10/27 08:08:27;;;;;;;47.38;6.80;;;15.20;99.90;;;;;;6215622;28;20129;-84
2022/10/27 08:11:29;;;;;;;12.40;4.63;;;15.40;99.90;;;;;;6215629;28;20050;-82
2022/10/27 08:14:30;;;;;;;50.10;5.63;;;15.60;99.90;;;;;;6212478;28;20050;-84
2022/10/27 08:17:32;;;;;;;36.88;5.60;;;15.80;99.90;;;;;;6212880;28;20165;-83
2022/10/27 08:20:38;;;;;;;31.00;5.18;;;15.80;99.90;;;;;;6213820;28;20042;-82
2022/10/27 08:23:41;;;;;;;12.93;4.70;;;16.00;99.90;;;;;;6212536;28;20503;-83
2022/10/27 08:26:43;;;;;;;27.20;4.63;;;16.20;99.90;;;;;;6214313;28;20050;-84
2022/10/27 08:29:45;;;;;;;27.58;5.45;;;16.40;99.90;;;;;;6212809;28;20046;-85
2022/10/27 08:32:47;;;;;;;16.13;4.10;;;16.80;99.90;;;;;;6204807;28;20061;-84
2022/10/27 08:35:50;;;;;;;10.98;3.75;;;17.00;99.90;;;;;;6211719;28;20089;-82
2022/10/27 08:38:53;;;;;;;36.72;4.65;;;17.30;99.90;;;;;;6187152;28;20050;-84
2022/10/27 08:42:01;;;;;;;15.52;2.97;;;17.50;99.90;;;;;;6190638;28;20039;-84
2022/10/27 08:45:08;;;;;;;24.13;4.07;;;17.60;99.90;;;;;;6191372;28;20141;-83
2022/10/27 08:48:12;;;;;;;13.20;4.00;;;17.80;99.90;;;;;;6191345;28;20053;-84
2022/10/27 08:51:16;;;;;;;7.63;3.25;;;17.90;99.90;;;;;;6190760;28;20054;-84
2022/10/27 08:54:22;;;;;;;14.68;4.50;;;17.90;99.90;;;;;;6189387;28;20050;-84
2022/10/27 08:57:25;;;;;;;10.15;3.90;;;18.00;99.90;;;;;;6188631;28;20129;-84
2022/10/27 09:00:30;;;;;;;9.68;4.22;;;18.10;99.90;;;;;;6194875;28;20042;-83
2022/10/27 09:03:48;;;;;;;14.85;4.10;;;18.30;99.90;;;;;;6194142;28;20055;-84
2022/10/27 09:07:02;;;;;;;13.93;5.03;;;18.30;99.90;;;;;;6184440;28;20062;-84
2022/10/27 09:10:18;;;;;;;8.90;4.93;;;18.50;99.90;;;;;;6184578;28;20051;-84
2022/10/27 09:13:31;;;;;;;8.80;4.38;;;18.70;99.90;;;;;;6183644;28;20062;-84
2022/10/27 09:16:38;;;;;;;13.77;4.43;;;19.00;99.90;;;;;;6182393;28;20053;-84
2022/10/27 09:19:43;;;;;;;9.40;5.05;;;19.10;99.90;;;;;;6182143;28;20069;-84
2022/10/27 09:22:45;;;;;;;19.63;4.90;;;19.30;99.90;;;;;;6183458;28;20053;-84
2022/10/27 09:25:51;;;;;;;11.82;5.07;;;19.50;99.90;;;;;;6182420;28;20057;-84
2022/10/27 09:28:54;;;;;;;8.82;5.00;;;19.60;99.90;;;;;;6182446;28;20050;-84
2022/10/27 09:32:00;;;;;;;17.55;5.50;;;19.60;99.90;;;;;;6195906;28;20057;-84
2022/10/27 09:35:05;;;;;;;9.05;5.07;;;19.70;99.90;;;;;;6206968;28;20058;-84
2022/10/27 09:38:11;;;;;;;14.00;6.50;;;19.80;99.90;;;;;;6188894;28;20069;-84
2022/10/27 09:41:14;;;;;;;12.13;5.28;;;20.10;99.90;;;;;;6180266;28;20058;-84
2022/10/27 09:44:20;;;;;;;10.57;5.57;;;20.40;99.90;;;;;;6197971;28;20049;-83
2022/10/27 09:47:23;;;;;;;14.10;5.40;;;20.60;99.90;;;;;;6206646;28;20495;-84
2022/10/27 09:50:28;;;;;;;14.18;4.97;;;20.60;99.70;;;;;;6204697;28;20046;-85
2022/10/27 09:53:48;;;;;;;10.52;5.72;;;20.60;99.20;;;;;;6206388;28;20046;-84
2022/10/27 09:56:51;;;;;;;13.32;5.85;;;20.60;99.00;;;;;;6207214;28;20046;-83
2022/10/27 09:59:57;;;;;;;15.18;5.70;;;20.30;98.60;;;;;;6206416;28;20054;-84
2022/10/27 10:03:03;;;;;;;11.70;5.45;;;20.10;99.10;;;;;;6205185;28;20046;-83
2022/10/27 10:06:22;;;;;;;12.75;6.15;;;20.30;99.20;;;;;;6204056;28;20065;-82
2022/10/27 10:09:27;;;;;;;12.32;5.90;;;20.60;99.50;;;;;;6202772;28;20527;-83
2022/10/27 10:12:30;;;;;;;9.43;5.07;;;20.90;98.80;;;;;;6205302;28;20046;-84
2022/10/27 10:15:36;;;;;;;17.08;6.05;;;20.90;98.40;;;;;;6211232;28;20030;-83
2022/10/27 10:18:39;;;;;;;9.13;4.68;;;20.90;98.30;;;;;;6228763;28;20335;-83
2022/10/27 10:21:47;;;;;;;11.52;4.82;;;21.00;98.10;;;;;;6219128;28;20076;-84
2022/10/27 10:24:49;;;;;;;16.15;4.78;;;21.00;98.10;;;;;;6209511;28;20042;-83
2022/10/27 10:27:59;;;;;;;10.02;4.85;;;21.00;98.00;;;;;;6198707;28;20050;-83
2022/10/27 10:31:03;;;;;;;9.70;4.53;;;20.90;97.90;;;;;;6199140;28;20050;-83
2022/10/27 10:34:07;;;;;;;16.40;4.20;;;21.10;97.90;;;;;;6198863;28;20407;-83
2022/10/27 10:37:31;;;;;;;8.35;4.30;;;21.30;97.80;;;;;;6208558;28;20068;-83
2022/10/27 10:40:33;;;;;;;16.90;4.85;;;21.50;97.60;;;;;;6175676;28;20050;-83
2022/10/27 10:43:36;;;;;;;8.85;3.85;;;21.80;97.50;;;;;;6190555;28;20054;-83
2022/10/27 10:46:40;;;;;;;5.88;3.72;;;22.10;97.30;;;;;;6206775;28;20484;-83
2022/10/27 10:49:48;;;;;;;11.10;3.10;;;22.20;96.70;;;;;;6205103;28;20043;-83
2022/10/27 10:52:52;;;;;;;;;;;22.40;96.50;;;;;;6206505;28;20054;-83
2022/10/27 10:55:57;;;;;;;7.85;3.20;;;22.90;96.70;;;;;;6205856;28;20001;-84
2022/10/27 10:59:07;;;;;;;8.20;3.30;;;23.30;96.00;;;;;;6204868;28;20051;-85
2022/10/27 11:02:22;;;;;;;4.57;2.92;;;23.90;95.10;;;;;;6203673;28;20411;-84
2022/10/27 11:05:29;;;;;;;6.97;3.08;;;24.30;94.40;;;;;;6204741;28;20046;-84
2022/10/27 11:08:36;;;;;;;7.22;3.47;;;24.70;93.70;;;;;;6203877;28;20042;-83
2022/10/27 11:11:43;;;;;;;5.35;2.92;;;25.20;92.70;;;;;;6200665;28;20054;-81
2022/10/27 11:14:49;;;;;;;4.03;2.47;;;25.70;91.70;;;;;;6188647;28;20055;-82
2022/10/27 11:17:53;;;;;;;7.88;3.08;;;26.10;90.70;;;;;;6180785;28;20055;-81
2022/10/27 11:21:01;;;;;;;10.63;3.13;;;26.50;89.40;;;;;;6179553;28;20528;-82
2022/10/27 11:24:08;;;;;;;6.03;2.53;;;26.70;86.90;;;;;;6179731;28;20047;-82
2022/10/27 11:27:15;;;;;;;4.47;2.10;;;27.00;85.20;;;;;;6181418;28;20156;-82
2022/10/27 11:30:23;;;;;;;4.55;2.35;;;27.30;83.10;;;;;;6179878;28;20046;-82
2022/10/27 11:33:32;;;;;;;8.65;2.80;;;27.40;82.00;;;;;;6179316;28;20043;-82
2022/10/27 11:36:40;;;;;;;4.50;2.03;;;27.40;81.40;;;;;;6179980;28;20049;-83
2022/10/27 11:39:50;;;;;;;6.75;1.92;;;27.60;80.60;;;;;;6178747;28;20061;-82
2022/10/27 11:42:57;;;;;;;3.45;1.70;;;27.80;79.00;;;;;;6178084;28;20054;-82
2022/10/27 11:46:06;;;;;;;5.10;1.27;;;28.00;77.80;;;;;;6201119;28;20050;-83
2022/10/27 11:49:13;;;;;;;6.30;1.67;;;28.00;76.90;;;;;;6201784;28;20054;-82
2022/10/27 11:52:21;;;;;;;6.00;1.85;;;28.20;76.40;;;;;;6202047;28;20041;-83
2022/10/27 11:55:27;;;;;;;6.93;1.40;;;28.40;75.60;;;;;;6202073;28;20066;-82
2022/10/27 11:58:38;;;;;;;5.95;1.40;;;28.70;74.00;;;;;;6202964;28;20050;-83
2022/10/27 12:01:51;;;;;;;5.43;1.98;;;29.00;73.50;;;;;;6201810;28;20427;-83
2022/10/27 12:04:59;;;;;;;3.72;1.75;;;29.20;73.00;;;;;;6201883;28;20046;-83
2022/10/27 12:08:12;;;;;;;5.15;1.92;;;29.50;72.30;;;;;;6201913;28;20495;-83
2022/10/27 12:11:30;;;;;;;6.90;2.13;;;29.60;71.50;;;;;;6201142;28;20057;-83
2022/10/27 12:14:38;;;;;;;6.03;1.70;;;29.80;71.00;;;;;;6193627;28;20061;-83
2022/10/27 12:17:46;;;;;;;12.05;2.53;;;30.10;70.20;;;;;;6201585;28;20061;-83
2022/10/27 12:20:52;;;;;;;3.72;1.42;;;30.30;69.10;;;;;;6201968;28;20053;-83
2022/10/27 12:24:00;;;;;;;5.32;1.73;;;30.50;68.00;;;;;;6201463;28;20043;-83
2022/10/27 12:27:10;;;;;;;8.07;1.58;;;30.70;67.30;;;;;;6202654;28;20415;-83
2022/10/27 12:30:15;;;;;;;14.25;3.95;;;30.80;66.30;;;;;;6201462;28;20432;-82
2022/10/27 12:33:24;;;;;;;14.63;5.32;;;31.00;65.40;;;;;;6202587;28;20053;-83
2022/10/27 12:36:33;;;;;;;7.88;1.85;;;31.10;64.50;;;;;;6202089;28;20047;-82
2022/10/27 12:39:43;;;;;;;5.68;2.00;;;31.20;63.80;;;;;;6200271;28;20057;-83
2022/10/27 12:42:53;;;;;;;3.45;1.52;;;31.30;63.00;;;;;;6177430;28;20476;-83
2022/10/27 12:46:06;;;;;;;6.05;1.40;;;31.30;62.30;;;;;;6180515;28;20058;-83
2022/10/27 12:49:17;;;;;;;11.02;1.85;;;31.40;61.80;;;;;;6177240;28;20131;-83
2022/10/27 12:52:22;;;;;;;8.75;1.70;;;31.60;61.10;;;;;;6177702;28;20046;-82
2022/10/27 12:55:45;;;;;;;4.65;1.48;;;31.80;60.50;;;;;;6178957;28;20061;-82
2022/10/27 12:58:53;;;;;;;11.60;2.03;;;31.90;60.10;;;;;;6182650;28;20047;-83
2022/10/27 13:01:58;;;;;;;8.55;1.98;;;32.00;59.40;;;;;;6180650;28;20060;-81
2022/10/27 13:05:41;;;;;;;7.15;1.60;;;32.10;58.50;;;;;;6179103;28;20452;-82
2022/10/27 13:09:16;;;;;;;8.77;3.75;;;32.20;58.50;;;;;;6176970;28;20397;-82
2022/10/27 13:12:37;;;;;;;5.70;1.45;;;32.10;58.40;;;;;;6187687;28;20047;-82
2022/10/27 13:15:50;;;;;;;9.15;1.88;;;32.00;58.00;;;;;;6198613;28;20496;-82
2022/10/27 13:19:18;;;;;;;6.57;1.60;;;31.90;58.00;;;;;;6154610;28;20063;-84
2022/10/27 13:22:26;;;;;;;8.93;2.28;;;32.00;57.70;;;;;;6157937;28;20504;-82
2022/10/27 13:25:34;;;;;;;7.97;2.38;;;32.00;57.40;;;;;;6156042;28;20050;-83
2022/10/27 13:28:41;;;;;;;8.10;1.80;;;32.00;57.10;;;;;;6156506;28;20059;-83
2022/10/27 13:31:43;;;;;;;5.20;1.75;;;32.00;57.00;;;;;;6156198;28;20055;-83
2022/10/27 13:35:19;;;;;;;6.07;1.73;;;32.10;57.00;;;;;;6168198;28;20047;-83
2022/10/27 13:38:25;;;;;;;11.85;2.10;;;32.20;57.10;;;;;;6178703;28;20058;-84
2022/10/27 13:42:06;;;;;;;5.38;1.23;;;32.20;56.80;;;;;;6182695;28;20053;-83
2022/10/27 13:45:48;;;;;;;7.88;1.90;;;32.30;56.50;;;;;;6225617;23;20073;-86
2022/10/27 13:48:51;;;;;;;6.47;1.67;;;32.10;56.50;;;;;;6174579;28;20125;-86
2022/10/27 13:52:10;;;;;;;3.55;1.90;;;32.20;56.00;;;;;;6181834;28;20046;-85
2022/10/27 13:55:33;;;;;;;10.18;2.08;;;32.20;55.80;;;;;;6182410;28;20062;-86
2022/10/27 13:58:51;;;;;;;8.48;1.98;;;32.20;55.70;;;;;;6177733;28;20046;-84
2022/10/27 14:01:59;;;;;;;5.10;2.00;;;32.10;55.40;;;;;;6179190;28;20047;-84
2022/10/27 14:05:03;;;;;;;13.77;3.00;;;31.80;55.00;;;;;;6178144;28;20050;-84
2022/10/27 14:08:16;;;;;;;12.25;2.00;;;31.70;55.10;;;;;;6178463;28;20054;-84
2022/10/27 14:11:21;;;;;;;5.55;1.60;;;31.30;55.40;;;;;;6179869;28;20062;-84
2022/10/27 14:14:32;;;;;;;5.18;1.90;;;31.00;56.10;;;;;;6195270;28;20042;-86
2022/10/27 14:17:35;;;;;;;9.43;3.28;;;30.70;56.60;;;;;;6202262;28;20427;-84
2022/10/27 14:20:39;;;;;;;8.93;2.30;;;30.50;57.10;;;;;;6201238;28;20450;-85
2022/10/27 14:23:42;;;;;;;8.38;2.65;;;30.40;57.40;;;;;;6203533;28;20116;-85
2022/10/27 14:26:44;;;;;;;4.97;2.22;;;30.20;57.80;;;;;;6200446;28;20057;-86
2022/10/27 14:29:47;;;;;;;11.82;4.00;;;30.10;58.00;;;;;;6202613;28;20060;-86
2022/10/27 14:32:49;;;;;;;22.65;14.88;;;30.10;58.00;;;;;;6203201;28;20042;-85
2022/10/27 14:36:05;;;;;;;11.98;3.35;;;29.90;58.10;;;;;;6201242;28;20046;-87
2022/10/27 14:39:24;;;;;;;7.30;1.65;;;29.80;58.60;;;;;;6201141;28;20491;-85
2022/10/27 14:42:27;;;;;;;8.25;2.08;;;29.90;59.40;;;;;;6195294;28;20511;-85
2022/10/27 14:45:38;;;;;;;9.60;1.67;;;30.10;59.10;;;;;;6177989;28;20047;-84
2022/10/27 14:48:40;;;;;;;23.02;2.30;;;30.10;59.40;;;;;;6179101;28;20078;-85
2022/10/27 14:51:42;;;;;;;4.75;1.50;;;29.80;59.50;;;;;;6182256;28;20051;-85
2022/10/27 14:54:48;;;;;;;12.68;2.20;;;29.70;60.00;;;;;;6179073;28;20058;-86
2022/10/27 14:57:51;;;;;;;5.78;1.75;;;29.50;60.30;;;;;;6179784;28;20058;-86
2022/10/27 15:00:54;;;;;;;12.02;2.10;;;29.40;60.90;;;;;;6188900;28;20046;-87
2022/10/27 15:04:14;;;;;;;9.77;2.45;;;29.20;61.50;;;;;;6205905;28;20042;-85
2022/10/27 15:07:19;;;;;;;17.42;5.60;;;28.90;61.80;;;;;;6207982;28;20141;-85
2022/10/27 15:10:21;;;;;;;13.30;3.38;;;28.70;62.10;;;;;;6207278;28;20058;-85
2022/10/27 15:13:26;;;;;;;6.13;2.35;;;28.50;62.40;;;;;;6195358;28;20047;-83
2022/10/27 15:16:36;;;;;;;5.53;1.58;;;28.30;62.70;;;;;;6182012;28;20051;-88
2022/10/27 15:19:38;;;;;;;10.02;2.55;;;28.20;62.90;;;;;;6190444;28;20057;-84
2022/10/27 15:22:45;;;;;;;5.57;1.92;;;28.10;63.30;;;;;;6191000;28;20114;-86
2022/10/27 15:25:49;;;;;;;12.98;2.33;;;27.90;64.10;;;;;;6200014;28;20098;-84
2022/10/27 15:28:52;;;;;;;9.57;1.90;;;27.70;64.50;;;;;;6194694;28;20057;-86
2022/10/27 15:31:59;;;;;;;5.18;1.92;;;27.40;65.20;;;;;;6193839;28;20043;-86
2022/10/27 15:35:01;;;;;;;13.73;2.10;;;27.10;66.60;;;;;;6191989;28;20058;-86
2022/10/27 15:38:23;;;;;;;6.47;1.98;;;26.70;66.50;;;;;;6190688;28;20053;-86
2022/10/27 15:41:27;;;;;;;8.88;2.75;;;26.20;67.40;;;;;;6189998;28;20054;-85
2022/10/27 15:44:29;;;;;;;13.93;1.92;;;25.80;68.40;;;;;;6194606;28;20058;-85
2022/10/27 15:47:42;;;;;;;19.30;2.28;;;25.30;69.40;;;;;;6163893;28;20541;-84
2022/10/27 15:50:54;;;;;;;7.63;2.33;;;24.90;70.70;;;;;;6164846;28;20051;-86
2022/10/27 15:53:57;;;;;;;4.43;1.83;;;24.50;71.60;;;;;;6162172;28;20047;-86
2022/10/27 15:57:00;;;;;;;8.18;1.92;;;24.00;72.70;;;;;;6155429;28;20158;-84
2022/10/27 16:00:08;;;;;;;8.93;2.30;;;23.60;74.00;;;;;;6167330;28;20046;-85
2022/10/27 16:03:28;;;;;;;9.00;3.40;;;23.20;75.40;;;;;;6210756;28;20050;-85